createdAt,value
2023-05-10T00:00:40.620Z,23.57
2023-05-10T00:01:40.626Z,23.56
2023-05-10T00:02:40.658Z,23.57
2023-05-10T00:03:40.624Z,23.56
2023-05-10T00:04:40.510Z,23.56
2023-05-10T00:05:40.470Z,23.56
2023-05-10T00:06:40.473Z,23.56
2023-05-10T00:07:40.403Z,23.55
2023-05-10T00:08:40.395Z,23.55
2023-05-10T00:09:40.362Z,23.56
2023-05-10T00:10:40.337Z,23.55
2023-05-10T00:11:40.298Z,23.55
2023-05-10T00:12:40.274Z,23.55
2023-05-10T00:13:40.273Z,23.55
2023-05-10T00:14:40.210Z,23.54
2023-05-10T00:15:40.180Z,23.54
2023-05-10T00:16:40.171Z,23.54
2023-05-10T00:17:40.205Z,23.54
2023-05-10T00:18:40.175Z,23.54
2023-05-10T00:19:40.080Z,23.54
2023-05-10T00:20:40.062Z,23.54
2023-05-10T00:21:40.023Z,23.54
2023-05-10T00:22:39.997Z,23.54
2023-05-10T00:23:39.973Z,23.54
2023-05-10T00:24:39.942Z,23.53
2023-05-10T00:25:39.904Z,23.54
2023-05-10T00:26:40.487Z,23.54
2023-05-10T00:27:39.849Z,23.53
2023-05-10T00:28:39.832Z,23.53
2023-05-10T00:29:39.793Z,23.53
2023-05-10T00:30:39.786Z,23.54
2023-05-10T00:31:39.804Z,23.53
2023-05-10T00:32:39.767Z,23.53
2023-05-10T00:33:39.685Z,23.53
2023-05-10T00:34:39.653Z,23.52
2023-05-10T00:35:39.637Z,23.52
2023-05-10T00:36:39.622Z,23.52
2023-05-10T00:37:39.593Z,23.52
2023-05-10T00:38:39.575Z,23.52
2023-05-10T00:39:39.573Z,23.51
2023-05-10T00:40:39.529Z,23.52
2023-05-10T00:41:39.505Z,23.51
2023-05-10T00:42:39.493Z,23.51
2023-05-10T00:43:39.494Z,23.51
2023-05-10T00:44:39.434Z,23.51
2023-05-10T00:45:39.420Z,23.51
2023-05-10T00:46:39.379Z,23.51
2023-05-10T00:47:39.407Z,23.51
2023-05-10T00:48:39.322Z,23.50
2023-05-10T00:49:39.306Z,23.50
2023-05-10T00:50:39.309Z,23.50
2023-05-10T00:51:39.276Z,23.50
2023-05-10T00:52:39.237Z,23.50
2023-05-10T00:53:39.202Z,23.50
2023-05-10T00:54:39.198Z,23.49
2023-05-10T00:55:39.147Z,23.50
2023-05-10T00:56:39.135Z,23.49
2023-05-10T00:57:39.106Z,23.50
2023-05-10T00:58:39.073Z,23.50
2023-05-10T00:59:39.035Z,23.49
2023-05-10T01:00:39.045Z,23.49
2023-05-10T01:01:39.008Z,23.48
2023-05-10T01:02:39.057Z,23.49
2023-05-10T01:03:39.018Z,23.48
2023-05-10T01:04:38.954Z,23.48
2023-05-10T01:05:38.885Z,23.48
2023-05-10T01:06:38.846Z,23.48
2023-05-10T01:07:38.876Z,23.48
2023-05-10T01:08:38.819Z,23.48
2023-05-10T01:09:38.842Z,23.47
2023-05-10T01:10:38.743Z,23.47
2023-05-10T01:11:38.725Z,23.48
2023-05-10T01:12:38.789Z,23.48
2023-05-10T01:13:39.014Z,23.48
2023-05-10T01:14:38.648Z,23.47
2023-05-10T01:15:38.687Z,23.48
2023-05-10T01:16:38.585Z,23.47
2023-05-10T01:17:38.611Z,23.47
2023-05-10T01:18:38.525Z,23.46
2023-05-10T01:19:38.500Z,23.47
2023-05-10T01:20:38.489Z,23.46
2023-05-10T01:21:38.459Z,23.46
2023-05-10T01:22:38.421Z,23.46
2023-05-10T01:23:38.518Z,23.46
2023-05-10T01:24:38.374Z,23.46
2023-05-10T01:25:38.359Z,23.46
2023-05-10T01:26:38.365Z,23.45
2023-05-10T01:27:38.327Z,23.46
2023-05-10T01:28:38.309Z,23.45
2023-05-10T01:29:38.272Z,23.45
2023-05-10T01:30:38.253Z,23.45
2023-05-10T01:31:38.221Z,23.44
2023-05-10T01:32:38.225Z,23.44
2023-05-10T01:33:38.184Z,23.45
2023-05-10T01:34:38.143Z,23.44
2023-05-10T01:35:38.137Z,23.44
2023-05-10T01:36:38.106Z,23.44
2023-05-10T01:37:38.174Z,23.44
2023-05-10T01:38:38.062Z,23.44
2023-05-10T01:39:38.044Z,23.44
2023-05-10T01:40:38.009Z,23.44
2023-05-10T01:41:38.007Z,23.44
2023-05-10T01:42:37.972Z,23.44
2023-05-10T01:43:37.948Z,23.43
2023-05-10T01:44:37.918Z,23.43
2023-05-10T01:45:37.905Z,23.43
2023-05-10T01:46:37.969Z,23.42
2023-05-10T01:47:37.851Z,23.42
2023-05-10T01:48:37.842Z,23.42
2023-05-10T01:49:37.821Z,23.43
2023-05-10T01:50:37.791Z,23.42
2023-05-10T01:51:37.747Z,23.42
2023-05-10T01:52:37.732Z,23.42
2023-05-10T01:53:37.696Z,23.41
2023-05-10T01:54:37.680Z,23.41
2023-05-10T01:55:37.652Z,23.41
2023-05-10T01:56:37.617Z,23.41
2023-05-10T01:57:37.596Z,23.41
2023-05-10T01:58:37.560Z,23.41
2023-05-10T01:59:37.565Z,23.40
2023-05-10T02:00:37.579Z,23.40
2023-05-10T02:01:37.488Z,23.40
2023-05-10T02:02:37.457Z,23.40
2023-05-10T02:03:37.462Z,23.39
2023-05-10T02:04:37.436Z,23.40
2023-05-10T02:05:37.394Z,23.40
2023-05-10T02:06:37.394Z,23.39
2023-05-10T02:07:37.353Z,23.39
2023-05-10T02:08:37.329Z,23.39
2023-05-10T02:09:37.295Z,23.39
2023-05-10T02:10:37.274Z,23.39
2023-05-10T02:11:37.252Z,23.39
2023-05-10T02:12:37.239Z,23.39
2023-05-10T02:13:37.243Z,23.38
2023-05-10T02:14:37.248Z,23.38
2023-05-10T02:15:37.172Z,23.38
2023-05-10T02:16:37.190Z,23.37
2023-05-10T02:17:37.185Z,23.38
2023-05-10T02:18:37.104Z,23.38
2023-05-10T02:19:37.074Z,23.38
2023-05-10T02:20:37.052Z,23.38
2023-05-10T02:21:37.014Z,23.37
2023-05-10T02:22:36.996Z,23.37
2023-05-10T02:23:36.976Z,23.37
2023-05-10T02:24:36.950Z,23.37
2023-05-10T02:25:36.940Z,23.37
2023-05-10T02:26:36.932Z,23.37
2023-05-10T02:27:36.922Z,23.36
2023-05-10T02:28:36.919Z,23.36
2023-05-10T02:29:36.903Z,23.36
2023-05-10T02:30:36.883Z,23.36
2023-05-10T02:31:36.905Z,23.36
2023-05-10T02:32:36.884Z,23.36
2023-05-10T02:33:36.860Z,23.35
2023-05-10T02:34:36.850Z,23.35
2023-05-10T02:35:36.836Z,23.35
2023-05-10T02:36:36.847Z,23.35
2023-05-10T02:37:36.828Z,23.35
2023-05-10T02:38:36.811Z,23.34
2023-05-10T02:39:36.802Z,23.35
2023-05-10T02:40:36.803Z,23.34
2023-05-10T02:41:36.800Z,23.34
2023-05-10T02:42:36.797Z,23.34
2023-05-10T02:43:36.786Z,23.34
2023-05-10T02:44:36.821Z,23.34
2023-05-10T02:45:36.810Z,23.34
2023-05-10T02:46:36.855Z,23.34
2023-05-10T02:47:36.827Z,23.34
2023-05-10T02:48:36.803Z,23.34
2023-05-10T02:49:36.788Z,23.33
2023-05-10T02:50:36.779Z,23.33
2023-05-10T02:51:36.776Z,23.32
2023-05-10T02:52:36.779Z,23.32
2023-05-10T02:53:36.786Z,23.33
2023-05-10T02:54:36.777Z,23.32
2023-05-10T02:55:36.765Z,23.32
2023-05-10T02:56:36.765Z,23.32
2023-05-10T02:57:36.753Z,23.31
2023-05-10T02:58:36.743Z,23.32
2023-05-10T02:59:36.727Z,23.32
2023-05-10T03:00:36.724Z,23.31
2023-05-10T03:01:36.765Z,23.31
2023-05-10T03:02:36.765Z,23.31
2023-05-10T03:03:36.730Z,23.31
2023-05-10T03:04:36.744Z,23.31
2023-05-10T03:05:36.710Z,23.30
2023-05-10T03:06:36.715Z,23.30
2023-05-10T03:07:36.713Z,23.31
2023-05-10T03:08:36.713Z,23.31
2023-05-10T03:09:36.728Z,23.30
2023-05-10T03:10:36.700Z,23.30
2023-05-10T03:11:36.742Z,23.30
2023-05-10T03:12:36.706Z,23.30
2023-05-10T03:13:36.718Z,23.30
2023-05-10T03:14:36.716Z,23.30
2023-05-10T03:15:36.715Z,23.29
2023-05-10T03:16:36.705Z,23.29
2023-05-10T03:17:36.747Z,23.29
2023-05-10T03:18:36.711Z,23.29
2023-05-10T03:19:36.713Z,23.28
2023-05-10T03:20:36.710Z,23.28
2023-05-10T03:21:36.713Z,23.28
2023-05-10T03:22:36.710Z,23.28
2023-05-10T03:23:36.714Z,23.28
2023-05-10T03:24:36.701Z,23.28
2023-05-10T03:25:36.696Z,23.27
2023-05-10T03:26:36.702Z,23.28
2023-05-10T03:27:36.796Z,23.28
2023-05-10T03:28:36.757Z,23.27
2023-05-10T03:29:36.691Z,23.27
2023-05-10T03:30:36.700Z,23.27
2023-05-10T03:31:36.736Z,23.26
2023-05-10T03:32:36.715Z,23.26
2023-05-10T03:33:36.714Z,23.27
2023-05-10T03:34:36.722Z,23.26
2023-05-10T03:35:36.706Z,23.26
2023-05-10T03:36:36.709Z,23.25
2023-05-10T03:37:36.712Z,23.26
2023-05-10T03:38:36.731Z,23.26
2023-05-10T03:39:36.719Z,23.26
2023-05-10T03:40:36.740Z,23.25
2023-05-10T03:41:36.717Z,23.26
2023-05-10T03:42:36.740Z,23.25
2023-05-10T03:43:36.776Z,23.25
2023-05-10T03:44:36.734Z,23.24
2023-05-10T03:45:36.746Z,23.25
2023-05-10T03:46:36.762Z,23.24
2023-05-10T03:47:36.797Z,23.24
2023-05-10T03:48:36.759Z,23.24
2023-05-10T03:49:36.765Z,23.24
2023-05-10T03:50:36.778Z,23.24
2023-05-10T03:51:36.762Z,23.23
2023-05-10T03:52:36.772Z,23.24
2023-05-10T03:53:36.769Z,23.23
2023-05-10T03:54:36.788Z,23.24
2023-05-10T03:55:36.774Z,23.23
2023-05-10T03:56:36.789Z,23.23
2023-05-10T03:57:36.786Z,23.23
2023-05-10T03:58:36.796Z,23.23
2023-05-10T03:59:36.812Z,23.23
2023-05-10T04:00:36.817Z,23.23
2023-05-10T04:01:36.849Z,23.23
2023-05-10T04:02:36.937Z,23.22
2023-05-10T04:03:36.894Z,23.22
2023-05-10T04:04:36.831Z,23.22
2023-05-10T04:05:36.833Z,23.21
2023-05-10T04:06:36.904Z,23.22
2023-05-10T04:07:36.853Z,23.22
2023-05-10T04:08:36.838Z,23.22
2023-05-10T04:09:36.851Z,23.21
2023-05-10T04:10:36.853Z,23.21
2023-05-10T04:11:36.866Z,23.21
2023-05-10T04:12:36.868Z,23.20
2023-05-10T04:13:36.864Z,23.21
2023-05-10T04:14:36.869Z,23.20
2023-05-10T04:15:36.892Z,23.19
2023-05-10T04:16:36.929Z,23.20
2023-05-10T04:17:36.931Z,23.20
2023-05-10T04:18:36.898Z,23.20
2023-05-10T04:19:36.904Z,23.20
2023-05-10T04:20:36.936Z,23.19
2023-05-10T04:21:36.922Z,23.19
2023-05-10T04:22:36.935Z,23.19
2023-05-10T04:23:36.982Z,23.20
2023-05-10T04:24:36.944Z,23.20
2023-05-10T04:25:36.954Z,23.20
2023-05-10T04:26:36.984Z,23.19
2023-05-10T04:27:36.994Z,23.19
2023-05-10T04:28:36.983Z,23.19
2023-05-10T04:29:36.987Z,23.19
2023-05-10T04:30:37.038Z,23.18
2023-05-10T04:31:37.003Z,23.19
2023-05-10T04:32:37.092Z,23.18
2023-05-10T04:33:37.026Z,23.18
2023-05-10T04:34:37.064Z,23.18
2023-05-10T04:35:37.058Z,23.18
2023-05-10T04:36:37.069Z,23.17
2023-05-10T04:37:37.080Z,23.18
2023-05-10T04:38:37.091Z,23.18
2023-05-10T04:39:37.110Z,23.18
2023-05-10T04:40:37.116Z,23.18
2023-05-10T04:41:37.133Z,23.18
2023-05-10T04:42:37.143Z,23.18
2023-05-10T04:43:37.258Z,23.18
2023-05-10T04:44:37.198Z,23.18
2023-05-10T04:45:37.166Z,23.18
2023-05-10T04:46:37.297Z,23.17
2023-05-10T04:47:37.253Z,23.17
2023-05-10T04:48:37.214Z,23.18
2023-05-10T04:49:37.231Z,23.18
2023-05-10T04:50:37.225Z,23.18
2023-05-10T04:51:37.333Z,23.18
2023-05-10T04:52:37.256Z,23.17
2023-05-10T04:53:38.066Z,23.17
2023-05-10T04:54:37.274Z,23.17
2023-05-10T04:55:37.280Z,23.17
2023-05-10T04:56:37.275Z,23.16
2023-05-10T04:57:37.295Z,23.16
2023-05-10T04:58:37.299Z,23.17
2023-05-10T04:59:37.331Z,23.17
2023-05-10T05:00:37.324Z,23.16
2023-05-10T05:01:37.384Z,23.17
2023-05-10T05:02:37.467Z,23.16
2023-05-10T05:03:37.392Z,23.16
2023-05-10T05:04:37.358Z,23.17
2023-05-10T05:05:37.401Z,23.16
2023-05-10T05:06:37.391Z,23.17
2023-05-10T05:07:37.462Z,23.16
2023-05-10T05:08:37.398Z,23.16
2023-05-10T05:09:37.402Z,23.16
2023-05-10T05:10:37.408Z,23.16
2023-05-10T05:11:37.408Z,23.16
2023-05-10T05:12:37.420Z,23.16
2023-05-10T05:13:37.429Z,23.16
2023-05-10T05:14:37.464Z,23.16
2023-05-10T05:15:37.452Z,23.16
2023-05-10T05:16:37.607Z,23.15
2023-05-10T05:17:37.498Z,23.16
2023-05-10T05:18:37.470Z,23.16
2023-05-10T05:19:37.480Z,23.16
2023-05-10T05:20:37.490Z,23.16
2023-05-10T05:21:37.495Z,23.17
2023-05-10T05:22:37.576Z,23.17
2023-05-10T05:23:37.503Z,23.17
2023-05-10T05:24:37.528Z,23.19
2023-05-10T05:25:37.539Z,23.22
2023-05-10T05:26:38.505Z,23.24
2023-05-10T05:27:37.614Z,23.26
2023-05-10T05:28:37.546Z,23.31
2023-05-10T05:29:38.512Z,23.37
2023-05-10T05:30:37.507Z,23.45
2023-05-10T05:31:39.082Z,23.49
2023-05-10T05:32:37.457Z,23.53
2023-05-10T05:33:37.404Z,23.58
2023-05-10T05:34:37.396Z,23.61
2023-05-10T05:35:37.371Z,23.64
2023-05-10T05:36:37.711Z,23.67
2023-05-10T05:37:37.306Z,23.70
2023-05-10T05:38:37.284Z,23.73
2023-05-10T05:39:37.297Z,23.75
2023-05-10T05:40:37.388Z,23.79
2023-05-10T05:41:37.213Z,23.82
2023-05-10T05:42:37.172Z,23.86
2023-05-10T05:43:38.328Z,23.89
2023-05-10T05:44:37.181Z,23.92
2023-05-10T05:45:37.269Z,23.96
2023-05-10T05:46:37.249Z,24.00
2023-05-10T05:47:37.393Z,24.02
2023-05-10T05:48:37.332Z,24.06
2023-05-10T05:49:37.366Z,24.09
2023-05-10T05:50:37.371Z,24.12
2023-05-10T05:51:37.391Z,24.14
2023-05-10T05:52:37.419Z,24.17
2023-05-10T05:53:37.434Z,24.20
2023-05-10T05:54:39.059Z,24.22
2023-05-10T05:55:37.462Z,24.25
2023-05-10T05:56:37.460Z,24.27
2023-05-10T05:57:37.487Z,24.29
2023-05-10T05:58:37.489Z,24.31
2023-05-10T05:59:37.486Z,24.34
2023-05-10T06:00:37.529Z,24.36
2023-05-10T06:01:37.484Z,24.38
2023-05-10T06:02:37.630Z,24.41
2023-05-10T06:03:37.561Z,24.43
2023-05-10T06:04:37.532Z,24.46
2023-05-10T06:05:37.629Z,24.49
2023-05-10T06:06:37.479Z,24.51
2023-05-10T06:07:37.492Z,24.53
2023-05-10T06:08:37.467Z,24.54
2023-05-10T06:09:37.467Z,24.56
2023-05-10T06:10:37.451Z,24.57
2023-05-10T06:11:37.490Z,24.60
2023-05-10T06:12:37.419Z,24.61
2023-05-10T06:13:37.403Z,24.63
2023-05-10T06:14:37.377Z,24.65
2023-05-10T06:15:37.382Z,24.67
2023-05-10T06:16:37.390Z,24.68
2023-05-10T06:17:37.341Z,24.70
2023-05-10T06:18:37.297Z,24.70
2023-05-10T06:19:37.269Z,24.71
2023-05-10T06:20:37.276Z,24.73
2023-05-10T06:21:37.234Z,24.73
2023-05-10T06:22:37.199Z,24.75
2023-05-10T06:23:37.159Z,24.78
2023-05-10T06:24:37.170Z,24.81
2023-05-10T06:25:37.162Z,24.86
2023-05-10T06:26:37.609Z,24.92
2023-05-10T06:27:37.160Z,24.95
2023-05-10T06:28:37.158Z,24.86
2023-05-10T06:29:37.050Z,24.63
2023-05-10T06:30:37.068Z,24.31
2023-05-10T06:31:37.133Z,24.07
2023-05-10T06:32:37.092Z,23.94
2023-05-10T06:33:37.072Z,23.87
2023-05-10T06:34:37.049Z,23.77
2023-05-10T06:35:37.047Z,23.73
2023-05-10T06:36:37.041Z,23.73
2023-05-10T06:37:37.032Z,23.71
2023-05-10T06:38:37.058Z,23.66
2023-05-10T06:39:37.051Z,23.64
2023-05-10T06:40:37.609Z,23.66
2023-05-10T06:41:37.062Z,23.77
2023-05-10T06:42:37.069Z,23.76
2023-05-10T06:43:37.039Z,23.73
2023-05-10T06:44:37.034Z,23.70
2023-05-10T06:45:37.034Z,23.68
2023-05-10T06:46:37.079Z,23.66
2023-05-10T06:47:38.794Z,23.63
2023-05-10T06:48:37.049Z,23.61
2023-05-10T06:49:38.035Z,23.62
2023-05-10T06:50:36.999Z,23.66
2023-05-10T06:51:36.963Z,23.70
2023-05-10T06:52:36.938Z,23.74
2023-05-10T06:53:36.941Z,23.79
2023-05-10T06:54:36.916Z,23.85
2023-05-10T06:55:36.886Z,23.88
2023-05-10T06:56:36.839Z,23.93
2023-05-10T06:57:36.813Z,23.98
2023-05-10T06:58:36.838Z,24.01
2023-05-10T06:59:36.850Z,24.03
2023-05-10T07:00:36.816Z,24.08
2023-05-10T07:01:36.828Z,24.12
2023-05-10T07:02:36.895Z,24.14
2023-05-10T07:03:36.856Z,24.16
2023-05-10T07:04:36.940Z,24.19
2023-05-10T07:05:36.982Z,24.21
2023-05-10T07:06:36.950Z,24.23
2023-05-10T07:07:36.955Z,24.26
2023-05-10T07:08:36.975Z,24.28
2023-05-10T07:09:36.996Z,24.30
2023-05-10T07:10:37.029Z,24.30
2023-05-10T07:11:37.025Z,24.33
2023-05-10T07:12:37.090Z,24.35
2023-05-10T07:13:37.037Z,24.37
2023-05-10T07:14:37.052Z,24.38
2023-05-10T07:15:37.062Z,24.41
2023-05-10T07:16:37.102Z,24.42
2023-05-10T07:17:37.155Z,24.42
2023-05-10T07:18:37.111Z,24.41
2023-05-10T07:19:37.117Z,24.37
2023-05-10T07:20:37.105Z,24.34
2023-05-10T07:21:37.210Z,24.31
2023-05-10T07:22:37.213Z,24.28
2023-05-10T07:23:37.188Z,24.26
2023-05-10T07:24:37.190Z,24.23
2023-05-10T07:25:37.218Z,24.21
2023-05-10T07:26:37.266Z,24.19
2023-05-10T07:27:37.285Z,24.16
2023-05-10T07:28:37.303Z,24.15
2023-05-10T07:29:37.362Z,24.13
2023-05-10T07:30:37.387Z,24.11
2023-05-10T07:31:37.429Z,24.09
2023-05-10T07:32:37.511Z,24.07
2023-05-10T07:33:37.478Z,24.05
2023-05-10T07:34:37.517Z,24.03
2023-05-10T07:35:37.559Z,24.02
2023-05-10T07:36:37.597Z,24.01
2023-05-10T07:37:37.632Z,23.99
2023-05-10T07:38:40.243Z,23.98
2023-05-10T07:39:37.643Z,23.97
2023-05-10T07:40:37.623Z,23.97
2023-05-10T07:41:37.596Z,23.95
2023-05-10T07:42:37.616Z,23.94
2023-05-10T07:43:37.538Z,23.93
2023-05-10T07:44:37.519Z,23.92
2023-05-10T07:45:37.505Z,23.91
2023-05-10T07:46:37.523Z,23.91
2023-05-10T07:47:37.485Z,23.90
2023-05-10T07:48:37.412Z,23.90
2023-05-10T07:49:37.392Z,23.89
2023-05-10T07:50:37.347Z,23.88
2023-05-10T07:51:37.319Z,23.88
2023-05-10T07:52:37.290Z,23.87
2023-05-10T07:53:37.261Z,23.87
2023-05-10T07:54:37.242Z,23.86
2023-05-10T07:55:37.211Z,23.86
2023-05-10T07:56:37.199Z,23.85
2023-05-10T07:57:37.141Z,23.84
2023-05-10T07:58:37.114Z,23.84
2023-05-10T07:59:37.102Z,23.84
2023-05-10T08:00:37.064Z,23.83
2023-05-10T08:01:37.051Z,23.82
2023-05-10T08:02:37.155Z,23.82
2023-05-10T08:03:37.134Z,23.81
2023-05-10T08:04:36.999Z,23.81
2023-05-10T08:05:36.923Z,23.80
2023-05-10T08:06:36.907Z,23.80
2023-05-10T08:07:36.871Z,23.80
2023-05-10T08:08:36.846Z,23.79
2023-05-10T08:09:36.823Z,23.79
2023-05-10T08:10:36.796Z,23.78
2023-05-10T08:11:37.707Z,23.78
2023-05-10T08:12:36.739Z,23.78
2023-05-10T08:13:36.715Z,23.78
2023-05-10T08:14:36.686Z,23.78
2023-05-10T08:15:36.688Z,23.77
2023-05-10T08:16:36.632Z,23.77
2023-05-10T08:17:36.624Z,23.77
2023-05-10T08:18:36.606Z,23.76
2023-05-10T08:19:36.557Z,23.76
2023-05-10T08:20:36.554Z,23.76
2023-05-10T08:21:36.583Z,23.76
2023-05-10T08:22:36.599Z,23.76
2023-05-10T08:23:36.612Z,23.75
2023-05-10T08:24:36.608Z,23.74
2023-05-10T08:25:36.627Z,23.74
2023-05-10T08:26:36.611Z,23.74
2023-05-10T08:27:36.616Z,23.74
2023-05-10T08:28:36.656Z,23.74
2023-05-10T08:29:48.921Z,23.74
2023-05-10T08:30:37.635Z,23.73
2023-05-10T08:31:36.647Z,23.73
2023-05-10T08:32:36.614Z,23.72
2023-05-10T08:33:36.552Z,23.72
2023-05-10T08:34:36.534Z,23.72
2023-05-10T08:35:36.511Z,23.72
2023-05-10T08:36:36.480Z,23.72
2023-05-10T08:37:36.450Z,23.72
2023-05-10T08:38:36.459Z,23.72
2023-05-10T08:39:36.429Z,23.72
2023-05-10T08:40:36.658Z,23.72
2023-05-10T08:41:38.175Z,23.72
2023-05-10T08:42:36.531Z,23.71
2023-05-10T08:43:36.557Z,23.71
2023-05-10T08:44:36.572Z,23.71
2023-05-10T08:45:36.588Z,23.70
2023-05-10T08:46:36.651Z,23.71
2023-05-10T08:47:36.677Z,23.70
2023-05-10T08:48:36.644Z,23.71
2023-05-10T08:49:36.643Z,23.71
2023-05-10T08:50:36.682Z,23.70
2023-05-10T08:51:36.757Z,23.71
2023-05-10T08:52:36.720Z,23.70
2023-05-10T08:53:36.748Z,23.71
2023-05-10T08:54:36.797Z,23.70
2023-05-10T08:55:36.828Z,23.70
2023-05-10T08:56:36.817Z,23.71
2023-05-10T08:57:36.857Z,23.70
2023-05-10T08:58:37.774Z,23.70
2023-05-10T08:59:36.825Z,23.70
2023-05-10T09:00:36.872Z,23.69
2023-05-10T09:01:36.795Z,23.69
2023-05-10T09:02:36.767Z,23.70
2023-05-10T09:03:36.764Z,23.69
2023-05-10T09:04:36.839Z,23.69
2023-05-10T09:05:36.703Z,23.68
2023-05-10T09:06:36.677Z,23.69
2023-05-10T09:07:36.751Z,23.68
2023-05-10T09:08:36.611Z,23.68
2023-05-10T09:09:36.588Z,23.68
2023-05-10T09:10:36.581Z,23.68
2023-05-10T09:11:36.594Z,23.68
2023-05-10T09:12:36.571Z,23.68
2023-05-10T09:13:36.563Z,23.67
2023-05-10T09:14:36.564Z,23.68
2023-05-10T09:15:36.562Z,23.67
2023-05-10T09:16:36.590Z,23.68
2023-05-10T09:17:36.597Z,23.67
2023-05-10T09:18:36.577Z,23.67
2023-05-10T09:19:36.559Z,23.66
2023-05-10T09:20:36.515Z,23.66
2023-05-10T09:21:36.478Z,23.66
2023-05-10T09:22:36.449Z,23.66
2023-05-10T09:23:36.443Z,23.66
2023-05-10T09:24:36.401Z,23.65
2023-05-10T09:25:36.427Z,23.66
2023-05-10T09:26:36.353Z,23.65
2023-05-10T09:27:36.323Z,23.65
2023-05-10T09:28:36.290Z,23.65
2023-05-10T09:29:36.281Z,23.65
2023-05-10T09:30:36.296Z,23.64
2023-05-10T09:31:36.265Z,23.64
2023-05-10T09:32:36.223Z,23.64
2023-05-10T09:33:36.157Z,23.64
2023-05-10T09:34:36.133Z,23.64
2023-05-10T09:35:36.105Z,23.63
2023-05-10T09:36:36.078Z,23.64
2023-05-10T09:37:36.049Z,23.63
2023-05-10T09:38:36.008Z,23.63
2023-05-10T09:39:35.997Z,23.63
2023-05-10T09:40:35.959Z,23.63
2023-05-10T09:41:35.927Z,23.63
2023-05-10T09:42:35.907Z,23.63
2023-05-10T09:43:35.881Z,23.62
2023-05-10T09:44:35.880Z,23.63
2023-05-10T09:45:38.305Z,23.62
2023-05-10T09:46:35.835Z,23.62
2023-05-10T09:47:35.827Z,23.61
2023-05-10T09:48:35.755Z,23.62
2023-05-10T09:49:35.747Z,23.62
2023-05-10T09:50:35.715Z,23.62
2023-05-10T09:51:36.785Z,23.62
2023-05-10T09:52:35.664Z,23.62
2023-05-10T09:53:35.641Z,23.62
2023-05-10T09:54:35.647Z,23.62
2023-05-10T09:55:35.597Z,23.61
2023-05-10T09:56:35.582Z,23.62
2023-05-10T09:57:35.545Z,23.61
2023-05-10T09:58:35.525Z,23.62
2023-05-10T09:59:35.496Z,23.61
2023-05-10T10:00:35.477Z,23.61
2023-05-10T10:01:35.492Z,23.61
2023-05-10T10:02:35.476Z,23.61
2023-05-10T10:03:35.411Z,23.60
2023-05-10T10:04:35.425Z,23.61
2023-05-10T10:05:35.395Z,23.60
2023-05-10T10:06:35.363Z,23.60
2023-05-10T10:07:35.389Z,23.60
2023-05-10T10:08:35.306Z,23.60
2023-05-10T10:09:35.276Z,23.59
2023-05-10T10:10:35.249Z,23.59
2023-05-10T10:11:35.230Z,23.60
2023-05-10T10:12:35.202Z,23.60
2023-05-10T10:13:35.171Z,23.59
2023-05-10T10:14:35.140Z,23.59
2023-05-10T10:15:35.162Z,23.59
2023-05-10T10:16:35.117Z,23.59
2023-05-10T10:17:35.103Z,23.58
2023-05-10T10:18:35.080Z,23.59
2023-05-10T10:19:35.029Z,23.59
2023-05-10T10:20:34.985Z,23.59
2023-05-10T10:21:34.955Z,23.59
2023-05-10T10:22:34.934Z,23.58
2023-05-10T10:23:34.935Z,23.58
2023-05-10T10:24:34.982Z,23.58
2023-05-10T10:25:34.879Z,23.57
2023-05-10T10:26:34.848Z,23.58
2023-05-10T10:27:34.829Z,23.57
2023-05-10T10:28:34.794Z,23.57
2023-05-10T10:29:34.760Z,23.57
2023-05-10T10:30:34.757Z,23.57
2023-05-10T10:31:34.791Z,23.56
2023-05-10T10:32:34.735Z,23.57
2023-05-10T10:33:34.775Z,23.57
2023-05-10T10:34:34.659Z,23.56
2023-05-10T10:35:34.610Z,23.56
2023-05-10T10:36:34.576Z,23.56
2023-05-10T10:37:34.567Z,23.56
2023-05-10T10:38:34.526Z,23.56
2023-05-10T10:39:34.525Z,23.56
2023-05-10T10:40:35.100Z,23.54
2023-05-10T10:41:34.457Z,23.55
2023-05-10T10:42:34.501Z,23.55
2023-05-10T10:43:34.386Z,23.55
2023-05-10T10:44:34.394Z,23.54
2023-05-10T10:45:35.333Z,23.54
2023-05-10T10:46:34.364Z,23.54
2023-05-10T10:47:34.432Z,23.54
2023-05-10T10:48:34.266Z,23.54
2023-05-10T10:49:34.255Z,23.53
2023-05-10T10:50:34.235Z,23.53
2023-05-10T10:51:34.171Z,23.53
2023-05-10T10:52:34.289Z,23.53
2023-05-10T10:53:34.151Z,23.52
2023-05-10T10:54:34.082Z,23.53
2023-05-10T10:55:34.082Z,23.53
2023-05-10T10:56:35.161Z,23.52
2023-05-10T10:57:33.989Z,23.52
2023-05-10T10:58:34.006Z,23.53
2023-05-10T10:59:33.969Z,23.52
2023-05-10T11:00:33.973Z,23.52
2023-05-10T11:01:34.010Z,23.52
2023-05-10T11:02:33.943Z,23.52
2023-05-10T11:03:33.910Z,23.52
2023-05-10T11:04:33.969Z,23.52
2023-05-10T11:05:33.861Z,23.52
2023-05-10T11:06:33.863Z,23.51
2023-05-10T11:07:33.838Z,23.50
2023-05-10T11:08:35.114Z,23.51
2023-05-10T11:09:34.116Z,23.51
2023-05-10T11:10:33.774Z,23.50
2023-05-10T11:11:33.748Z,23.50
2023-05-10T11:12:33.714Z,23.50
2023-05-10T11:13:33.685Z,23.50
2023-05-10T11:14:33.685Z,23.50
2023-05-10T11:15:33.640Z,23.50
2023-05-10T11:16:33.657Z,23.50
2023-05-10T11:17:33.617Z,23.49
2023-05-10T11:18:33.556Z,23.49
2023-05-10T11:19:33.513Z,23.49
2023-05-10T11:20:33.484Z,23.49
2023-05-10T11:21:33.486Z,23.49
2023-05-10T11:22:33.487Z,23.49
2023-05-10T11:23:33.433Z,23.48
2023-05-10T11:24:33.373Z,23.49
2023-05-10T11:25:33.345Z,23.48
2023-05-10T11:26:33.306Z,23.48
2023-05-10T11:27:33.276Z,23.48
2023-05-10T11:28:33.260Z,23.48
2023-05-10T11:29:33.225Z,23.48
2023-05-10T11:30:33.274Z,23.48
2023-05-10T11:31:33.193Z,23.47
2023-05-10T11:32:33.176Z,23.48
2023-05-10T11:33:33.717Z,23.48
2023-05-10T11:34:33.070Z,23.47
2023-05-10T11:35:33.046Z,23.47
2023-05-10T11:36:33.034Z,23.47
2023-05-10T11:37:32.977Z,23.47
2023-05-10T11:38:32.936Z,23.47
2023-05-10T11:39:32.921Z,23.48
2023-05-10T11:40:32.886Z,23.48
2023-05-10T11:41:32.883Z,23.47
2023-05-10T11:42:32.820Z,23.47
2023-05-10T11:43:32.813Z,23.47
2023-05-10T11:44:32.827Z,23.47
2023-05-10T11:45:32.733Z,23.47
2023-05-10T11:46:32.840Z,23.47
2023-05-10T11:47:32.717Z,23.47
2023-05-10T11:48:32.630Z,23.47
2023-05-10T11:49:32.593Z,23.47
2023-05-10T11:50:32.565Z,23.46
2023-05-10T11:51:32.534Z,23.47
2023-05-10T11:52:32.502Z,23.47
2023-05-10T11:53:32.478Z,23.47
2023-05-10T11:54:32.429Z,23.46
2023-05-10T11:55:32.419Z,23.46
2023-05-10T11:56:32.553Z,23.46
2023-05-10T11:57:32.347Z,23.46
2023-05-10T11:58:32.321Z,23.46
2023-05-10T11:59:32.284Z,23.46
2023-05-10T12:00:32.264Z,23.46
2023-05-10T12:01:32.236Z,23.46
2023-05-10T12:02:33.250Z,23.45
2023-05-10T12:03:32.400Z,23.45
2023-05-10T12:04:32.178Z,23.45
2023-05-10T12:05:32.087Z,23.45
2023-05-10T12:06:32.263Z,23.45
2023-05-10T12:07:32.041Z,23.45
2023-05-10T12:08:32.047Z,23.45
2023-05-10T12:09:43.072Z,23.44
2023-05-10T12:10:32.935Z,23.44
2023-05-10T12:11:31.924Z,23.43
2023-05-10T12:12:31.889Z,23.44
2023-05-10T12:13:31.863Z,23.43
2023-05-10T12:14:31.816Z,23.44
2023-05-10T12:15:31.786Z,23.43
2023-05-10T12:16:31.915Z,23.44
2023-05-10T12:17:31.819Z,23.44
2023-05-10T12:18:32.676Z,23.44
2023-05-10T12:19:31.700Z,23.44
2023-05-10T12:20:31.652Z,23.44
2023-05-10T12:21:31.680Z,23.43
2023-05-10T12:22:31.587Z,23.43
2023-05-10T12:23:31.562Z,23.43
2023-05-10T12:24:32.279Z,23.44
2023-05-10T12:25:31.488Z,23.44
2023-05-10T12:26:31.617Z,23.43
2023-05-10T12:27:31.429Z,23.43
2023-05-10T12:28:31.404Z,23.43
2023-05-10T12:29:31.378Z,23.43
2023-05-10T12:30:31.350Z,23.43
2023-05-10T12:31:31.353Z,23.43
2023-05-10T12:32:31.327Z,23.43
2023-05-10T12:33:31.310Z,23.42
2023-05-10T12:34:31.212Z,23.43
2023-05-10T12:35:31.178Z,23.43
2023-05-10T12:36:31.284Z,23.43
2023-05-10T12:37:31.123Z,23.42
2023-05-10T12:38:31.113Z,23.43
2023-05-10T12:39:31.106Z,23.42
2023-05-10T12:40:31.096Z,23.42
2023-05-10T12:41:31.075Z,23.42
2023-05-10T12:42:31.085Z,23.42
2023-05-10T12:43:31.051Z,23.42
2023-05-10T12:44:31.056Z,23.41
2023-05-10T12:45:31.750Z,23.42
2023-05-10T12:46:31.146Z,23.42
2023-05-10T12:47:31.046Z,23.42
2023-05-10T12:48:31.022Z,23.41
2023-05-10T12:49:31.014Z,23.41
2023-05-10T12:50:31.014Z,23.41
2023-05-10T12:51:30.994Z,23.42
2023-05-10T12:52:30.974Z,23.41